sensor_id;sensor_type;location;lat;lon;timestamp;P1;durP1;ratioP1;P2;durP2;ratioP2
44704;SDS011;30431;48.520;9.046;2023-07-02T00:00:17;3.00;;;2.13;;
44704;SDS011;30431;48.520;9.046;2023-07-02T00:02:46;3.00;;;2.30;;
44704;SDS011;30431;48.520;9.046;2023-07-02T00:05:13;2.92;;;2.20;;
44704;SDS011;30431;48.520;9.046;2023-07-02T00:07:42;3.47;;;2.30;;
44704;SDS011;30431;48.520;9.046;2023-07-02T00:10:09;3.38;;;2.67;;
44704;SDS011;30431;48.520;9.046;2023-07-02T00:12:37;4.97;;;2.67;;
44704;SDS011;30431;48.520;9.046;2023-07-02T00:15:04;3.63;;;2.22;;
44704;SDS011;30431;48.520;9.046;2023-07-02T00:17:34;5.05;;;2.40;;
44704;SDS011;30431;48.520;9.046;2023-07-02T00:20:03;2.92;;;2.42;;
44704;SDS011;30431;48.520;9.046;2023-07-02T00:24:58;5.68;;;2.83;;
44704;SDS011;30431;48.520;9.046;2023-07-02T00:27:25;3.88;;;2.60;;
44704;SDS011;30431;48.520;9.046;2023-07-02T00:29:52;5.15;;;2.72;;
44704;SDS011;30431;48.520;9.046;2023-07-02T00:32:19;4.57;;;3.00;;
44704;SDS011;30431;48.520;9.046;2023-07-02T00:34:46;4.20;;;2.40;;
44704;SDS011;30431;48.520;9.046;2023-07-02T00:37:13;7.07;;;2.88;;
44704;SDS011;30431;48.520;9.046;2023-07-02T00:39:41;5.22;;;2.47;;
44704;SDS011;30431;48.520;9.046;2023-07-02T00:42:08;4.70;;;3.20;;
44704;SDS011;30431;48.520;9.046;2023-07-02T00:44:37;3.55;;;2.72;;
44704;SDS011;30431;48.520;9.046;2023-07-02T00:47:07;4.40;;;2.63;;
44704;SDS011;30431;48.520;9.046;2023-07-02T00:49:35;3.55;;;2.65;;
44704;SDS011;30431;48.520;9.046;2023-07-02T00:52:03;3.90;;;2.80;;
44704;SDS011;30431;48.520;9.046;2023-07-02T00:54:30;4.03;;;2.80;;
44704;SDS011;30431;48.520;9.046;2023-07-02T00:57:00;3.40;;;2.42;;
44704;SDS011;30431;48.520;9.046;2023-07-02T00:59:33;5.13;;;2.60;;
44704;SDS011;30431;48.520;9.046;2023-07-02T01:02:02;5.43;;;2.80;;
44704;SDS011;30431;48.520;9.046;2023-07-02T01:04:35;4.95;;;2.50;;
44704;SDS011;30431;48.520;9.046;2023-07-02T01:07:06;4.50;;;2.72;;
44704;SDS011;30431;48.520;9.046;2023-07-02T01:09:36;5.72;;;2.65;;
44704;SDS011;30431;48.520;9.046;2023-07-02T01:12:03;4.15;;;2.88;;
44704;SDS011;30431;48.520;9.046;2023-07-02T01:14:41;6.85;;;3.00;;
44704;SDS011;30431;48.520;9.046;2023-07-02T01:17:15;3.00;;;2.70;;
44704;SDS011;30431;48.520;9.046;2023-07-02T01:22:18;2.92;;;2.53;;
44704;SDS011;30431;48.520;9.046;2023-07-02T01:24:49;3.63;;;2.60;;
44704;SDS011;30431;48.520;9.046;2023-07-02T01:27:17;3.67;;;2.67;;
44704;SDS011;30431;48.520;9.046;2023-07-02T01:29:45;3.33;;;2.53;;
44704;SDS011;30431;48.520;9.046;2023-07-02T01:32:14;4.93;;;2.92;;
44704;SDS011;30431;48.520;9.046;2023-07-02T01:34:41;3.45;;;2.85;;
44704;SDS011;30431;48.520;9.046;2023-07-02T01:37:10;3.67;;;2.83;;
44704;SDS011;30431;48.520;9.046;2023-07-02T01:39:37;4.55;;;2.90;;
44704;SDS011;30431;48.520;9.046;2023-07-02T01:42:10;6.28;;;2.95;;
44704;SDS011;30431;48.520;9.046;2023-07-02T01:44:38;3.75;;;2.75;;
44704;SDS011;30431;48.520;9.046;2023-07-02T01:47:06;4.07;;;2.85;;
44704;SDS011;30431;48.520;9.046;2023-07-02T01:49:33;4.70;;;2.92;;
44704;SDS011;30431;48.520;9.046;2023-07-02T01:52:00;3.63;;;2.90;;
44704;SDS011;30431;48.520;9.046;2023-07-02T01:54:27;4.10;;;2.90;;
44704;SDS011;30431;48.520;9.046;2023-07-02T01:56:55;6.85;;;3.05;;
44704;SDS011;30431;48.520;9.046;2023-07-02T01:59:22;4.72;;;2.80;;
44704;SDS011;30431;48.520;9.046;2023-07-02T02:04:19;5.68;;;2.83;;
44704;SDS011;30431;48.520;9.046;2023-07-02T02:06:48;4.38;;;3.25;;
44704;SDS011;30431;48.520;9.046;2023-07-02T02:09:15;4.78;;;2.88;;
44704;SDS011;30431;48.520;9.046;2023-07-02T02:11:43;4.70;;;2.95;;
44704;SDS011;30431;48.520;9.046;2023-07-02T02:14:15;5.72;;;3.05;;
44704;SDS011;30431;48.520;9.046;2023-07-02T02:16:44;4.22;;;2.70;;
44704;SDS011;30431;48.520;9.046;2023-07-02T02:21:41;4.05;;;2.92;;
44704;SDS011;30431;48.520;9.046;2023-07-02T02:24:08;5.00;;;2.80;;
44704;SDS011;30431;48.520;9.046;2023-07-02T02:26:35;4.38;;;2.80;;
44704;SDS011;30431;48.520;9.046;2023-07-02T02:29:02;5.75;;;3.20;;
44704;SDS011;30431;48.520;9.046;2023-07-02T02:31:29;4.00;;;3.00;;
44704;SDS011;30431;48.520;9.046;2023-07-02T02:33:58;7.38;;;3.10;;
44704;SDS011;30431;48.520;9.046;2023-07-02T02:36:27;5.90;;;2.90;;
44704;SDS011;30431;48.520;9.046;2023-07-02T02:38:57;4.22;;;2.92;;
44704;SDS011;30431;48.520;9.046;2023-07-02T02:41:25;4.43;;;2.85;;
44704;SDS011;30431;48.520;9.046;2023-07-02T02:43:54;5.32;;;3.00;;
44704;SDS011;30431;48.520;9.046;2023-07-02T02:46:24;5.30;;;3.30;;
44704;SDS011;30431;48.520;9.046;2023-07-02T02:48:52;8.30;;;3.30;;
44704;SDS011;30431;48.520;9.046;2023-07-02T02:51:19;4.68;;;3.17;;
44704;SDS011;30431;48.520;9.046;2023-07-02T02:53:46;5.03;;;3.30;;
44704;SDS011;30431;48.520;9.046;2023-07-02T02:56:13;4.32;;;3.28;;
44704;SDS011;30431;48.520;9.046;2023-07-02T02:58:40;4.32;;;3.20;;
44704;SDS011;30431;48.520;9.046;2023-07-02T03:01:08;4.30;;;3.10;;
44704;SDS011;30431;48.520;9.046;2023-07-02T03:03:39;3.67;;;2.90;;
44704;SDS011;30431;48.520;9.046;2023-07-02T03:06:13;6.30;;;3.50;;
44704;SDS011;30431;48.520;9.046;2023-07-02T03:08:41;6.60;;;3.38;;
44704;SDS011;30431;48.520;9.046;2023-07-02T03:11:08;6.03;;;3.40;;
44704;SDS011;30431;48.520;9.046;2023-07-02T03:13:35;5.20;;;3.22;;
44704;SDS011;30431;48.520;9.046;2023-07-02T03:16:02;6.75;;;3.03;;
44704;SDS011;30431;48.520;9.046;2023-07-02T03:18:33;7.25;;;3.72;;
44704;SDS011;30431;48.520;9.046;2023-07-02T03:21:00;4.85;;;3.47;;
44704;SDS011;30431;48.520;9.046;2023-07-02T03:23:27;6.28;;;3.97;;
44704;SDS011;30431;48.520;9.046;2023-07-02T03:25:54;6.03;;;3.55;;
44704;SDS011;30431;48.520;9.046;2023-07-02T03:28:21;7.45;;;3.90;;
44704;SDS011;30431;48.520;9.046;2023-07-02T03:30:50;8.57;;;4.22;;
44704;SDS011;30431;48.520;9.046;2023-07-02T03:33:19;7.75;;;4.28;;
44704;SDS011;30431;48.520;9.046;2023-07-02T03:35:46;10.30;;;4.13;;
44704;SDS011;30431;48.520;9.046;2023-07-02T03:38:16;14.23;;;4.25;;
44704;SDS011;30431;48.520;9.046;2023-07-02T03:40:43;6.18;;;4.10;;
44704;SDS011;30431;48.520;9.046;2023-07-02T03:43:10;7.35;;;4.13;;
44704;SDS011;30431;48.520;9.046;2023-07-02T03:45:37;5.63;;;3.63;;
44704;SDS011;30431;48.520;9.046;2023-07-02T03:48:04;4.70;;;3.90;;
44704;SDS011;30431;48.520;9.046;2023-07-02T03:53:00;7.47;;;4.50;;
44704;SDS011;30431;48.520;9.046;2023-07-02T03:55:30;7.47;;;4.32;;
44704;SDS011;30431;48.520;9.046;2023-07-02T03:57:57;6.07;;;3.55;;
44704;SDS011;30431;48.520;9.046;2023-07-02T04:00:24;6.40;;;4.20;;
44704;SDS011;30431;48.520;9.046;2023-07-02T04:02:53;6.82;;;4.18;;
44704;SDS011;30431;48.520;9.046;2023-07-02T04:05:20;6.78;;;3.90;;
44704;SDS011;30431;48.520;9.046;2023-07-02T04:07:50;5.95;;;3.80;;
44704;SDS011;30431;48.520;9.046;2023-07-02T04:10:19;4.20;;;3.38;;
44704;SDS011;30431;48.520;9.046;2023-07-02T04:12:46;8.18;;;3.88;;
44704;SDS011;30431;48.520;9.046;2023-07-02T04:15:13;5.22;;;4.18;;
44704;SDS011;30431;48.520;9.046;2023-07-02T04:20:10;7.13;;;3.92;;
44704;SDS011;30431;48.520;9.046;2023-07-02T04:22:40;7.35;;;3.88;;
44704;SDS011;30431;48.520;9.046;2023-07-02T04:25:07;5.90;;;3.80;;
44704;SDS011;30431;48.520;9.046;2023-07-02T04:27:54;7.03;;;3.88;;
44704;SDS011;30431;48.520;9.046;2023-07-02T04:30:25;8.00;;;5.20;;
44704;SDS011;30431;48.520;9.046;2023-07-02T04:35:21;12.13;;;7.43;;
44704;SDS011;30431;48.520;9.046;2023-07-02T04:37:48;7.93;;;5.65;;
44704;SDS011;30431;48.520;9.046;2023-07-02T04:40:16;10.75;;;7.38;;
44704;SDS011;30431;48.520;9.046;2023-07-02T04:42:44;8.25;;;5.18;;
44704;SDS011;30431;48.520;9.046;2023-07-02T04:45:14;12.27;;;6.75;;
44704;SDS011;30431;48.520;9.046;2023-07-02T04:47:45;10.68;;;6.13;;
44704;SDS011;30431;48.520;9.046;2023-07-02T04:50:12;15.27;;;7.22;;
44704;SDS011;30431;48.520;9.046;2023-07-02T04:55:08;26.83;;;13.48;;
44704;SDS011;30431;48.520;9.046;2023-07-02T04:57:35;16.33;;;10.50;;
44704;SDS011;30431;48.520;9.046;2023-07-02T05:00:04;13.00;;;7.35;;
44704;SDS011;30431;48.520;9.046;2023-07-02T05:02:35;18.23;;;8.73;;
44704;SDS011;30431;48.520;9.046;2023-07-02T05:05:02;13.93;;;8.10;;
44704;SDS011;30431;48.520;9.046;2023-07-02T05:07:29;13.13;;;7.75;;
44704;SDS011;30431;48.520;9.046;2023-07-02T05:09:58;13.15;;;6.28;;
44704;SDS011;30431;48.520;9.046;2023-07-02T05:12:28;5.50;;;3.80;;
44704;SDS011;30431;48.520;9.046;2023-07-02T05:14:57;6.15;;;3.85;;
44704;SDS011;30431;48.520;9.046;2023-07-02T05:17:24;6.07;;;3.20;;
44704;SDS011;30431;48.520;9.046;2023-07-02T05:19:51;5.25;;;3.45;;
44704;SDS011;30431;48.520;9.046;2023-07-02T05:22:19;4.32;;;3.13;;
44704;SDS011;30431;48.520;9.046;2023-07-02T05:24:46;5.68;;;3.03;;
44704;SDS011;30431;48.520;9.046;2023-07-02T05:27:17;4.55;;;2.88;;
44704;SDS011;30431;48.520;9.046;2023-07-02T05:29:44;5.95;;;2.47;;
44704;SDS011;30431;48.520;9.046;2023-07-02T05:32:15;5.05;;;2.63;;
44704;SDS011;30431;48.520;9.046;2023-07-02T05:34:42;4.40;;;2.60;;
44704;SDS011;30431;48.520;9.046;2023-07-02T05:37:09;3.90;;;2.53;;
44704;SDS011;30431;48.520;9.046;2023-07-02T05:39:36;6.30;;;2.72;;
44704;SDS011;30431;48.520;9.046;2023-07-02T05:42:05;3.53;;;2.50;;
44704;SDS011;30431;48.520;9.046;2023-07-02T05:44:32;3.92;;;2.60;;
44704;SDS011;30431;48.520;9.046;2023-07-02T05:47:02;4.22;;;2.22;;
44704;SDS011;30431;48.520;9.046;2023-07-02T05:49:32;3.17;;;2.45;;
44704;SDS011;30431;48.520;9.046;2023-07-02T05:52:03;4.22;;;2.97;;
44704;SDS011;30431;48.520;9.046;2023-07-02T05:54:30;6.25;;;3.10;;
44704;SDS011;30431;48.520;9.046;2023-07-02T05:56:57;4.47;;;2.88;;
44704;SDS011;30431;48.520;9.046;2023-07-02T05:59:24;4.15;;;2.78;;
44704;SDS011;30431;48.520;9.046;2023-07-02T06:01:51;5.13;;;3.15;;
44704;SDS011;30431;48.520;9.046;2023-07-02T06:04:20;8.18;;;4.70;;
44704;SDS011;30431;48.520;9.046;2023-07-02T06:06:47;7.00;;;3.75;;
44704;SDS011;30431;48.520;9.046;2023-07-02T06:09:14;8.38;;;3.22;;
44704;SDS011;30431;48.520;9.046;2023-07-02T06:11:43;5.93;;;2.97;;
44704;SDS011;30431;48.520;9.046;2023-07-02T06:14:13;5.50;;;3.78;;
44704;SDS011;30431;48.520;9.046;2023-07-02T06:16:40;5.50;;;3.22;;
44704;SDS011;30431;48.520;9.046;2023-07-02T06:21:39;5.22;;;3.40;;
44704;SDS011;30431;48.520;9.046;2023-07-02T06:24:08;8.38;;;4.30;;
44704;SDS011;30431;48.520;9.046;2023-07-02T06:26:35;6.22;;;3.58;;
44704;SDS011;30431;48.520;9.046;2023-07-02T06:29:02;6.72;;;4.00;;
44704;SDS011;30431;48.520;9.046;2023-07-02T06:31:31;6.70;;;3.80;;
44704;SDS011;30431;48.520;9.046;2023-07-02T06:38:54;6.05;;;3.60;;
44704;SDS011;30431;48.520;9.046;2023-07-02T06:41:26;8.52;;;3.70;;
44704;SDS011;30431;48.520;9.046;2023-07-02T06:43:53;6.53;;;3.50;;
44704;SDS011;30431;48.520;9.046;2023-07-02T06:46:22;11.07;;;4.32;;
44704;SDS011;30431;48.520;9.046;2023-07-02T06:48:49;7.43;;;4.30;;
44704;SDS011;30431;48.520;9.046;2023-07-02T06:51:16;10.15;;;4.80;;
44704;SDS011;30431;48.520;9.046;2023-07-02T06:53:44;8.57;;;4.82;;
44704;SDS011;30431;48.520;9.046;2023-07-02T06:56:12;6.93;;;4.60;;
44704;SDS011;30431;48.520;9.046;2023-07-02T06:58:39;11.07;;;5.10;;
44704;SDS011;30431;48.520;9.046;2023-07-02T07:01:09;9.20;;;5.25;;
44704;SDS011;30431;48.520;9.046;2023-07-02T07:03:40;10.48;;;5.47;;
44704;SDS011;30431;48.520;9.046;2023-07-02T07:08:38;12.52;;;6.15;;
44704;SDS011;30431;48.520;9.046;2023-07-02T07:11:07;11.90;;;5.63;;
44704;SDS011;30431;48.520;9.046;2023-07-02T07:13:37;10.60;;;6.03;;
44704;SDS011;30431;48.520;9.046;2023-07-02T07:16:04;14.48;;;6.95;;
44704;SDS011;30431;48.520;9.046;2023-07-02T07:18:33;11.85;;;6.65;;
44704;SDS011;30431;48.520;9.046;2023-07-02T07:21:03;10.75;;;6.53;;
44704;SDS011;30431;48.520;9.046;2023-07-02T07:23:29;18.63;;;7.13;;
44704;SDS011;30431;48.520;9.046;2023-07-02T07:25:59;13.98;;;7.40;;
44704;SDS011;30431;48.520;9.046;2023-07-02T07:28:26;17.95;;;8.85;;
44704;SDS011;30431;48.520;9.046;2023-07-02T07:30:53;16.50;;;8.02;;
44704;SDS011;30431;48.520;9.046;2023-07-02T07:33:22;15.27;;;8.48;;
44704;SDS011;30431;48.520;9.046;2023-07-02T07:35:49;13.35;;;8.57;;
44704;SDS011;30431;48.520;9.046;2023-07-02T07:38:16;20.50;;;9.38;;
44704;SDS011;30431;48.520;9.046;2023-07-02T07:40:43;17.67;;;8.98;;
44704;SDS011;30431;48.520;9.046;2023-07-02T07:43:10;16.80;;;9.30;;
44704;SDS011;30431;48.520;9.046;2023-07-02T07:45:42;16.65;;;9.23;;
44704;SDS011;30431;48.520;9.046;2023-07-02T07:48:11;18.02;;;9.50;;
44704;SDS011;30431;48.520;9.046;2023-07-02T07:50:46;16.48;;;9.48;;
44704;SDS011;30431;48.520;9.046;2023-07-02T07:53:19;13.40;;;8.57;;
44704;SDS011;30431;48.520;9.046;2023-07-02T07:55:46;17.00;;;9.05;;
44704;SDS011;30431;48.520;9.046;2023-07-02T07:58:13;19.15;;;9.90;;
44704;SDS011;30431;48.520;9.046;2023-07-02T08:00:44;19.10;;;9.13;;
44704;SDS011;30431;48.520;9.046;2023-07-02T08:10:39;20.85;;;10.60;;
44704;SDS011;30431;48.520;9.046;2023-07-02T08:13:06;14.07;;;9.38;;
44704;SDS011;30431;48.520;9.046;2023-07-02T08:15:34;13.98;;;9.35;;
44704;SDS011;30431;48.520;9.046;2023-07-02T08:20:30;14.85;;;9.27;;
44704;SDS011;30431;48.520;9.046;2023-07-02T08:22:59;18.50;;;8.95;;
44704;SDS011;30431;48.520;9.046;2023-07-02T08:25:26;15.95;;;8.13;;
44704;SDS011;30431;48.520;9.046;2023-07-02T08:27:53;16.75;;;9.05;;
44704;SDS011;30431;48.520;9.046;2023-07-02T08:30:20;17.15;;;9.80;;
44704;SDS011;30431;48.520;9.046;2023-07-02T08:32:47;15.40;;;8.57;;
44704;SDS011;30431;48.520;9.046;2023-07-02T08:35:17;16.27;;;8.85;;
44704;SDS011;30431;48.520;9.046;2023-07-02T08:37:46;16.45;;;9.43;;
44704;SDS011;30431;48.520;9.046;2023-07-02T08:40:16;19.25;;;9.45;;
44704;SDS011;30431;48.520;9.046;2023-07-02T08:42:44;15.85;;;9.95;;
44704;SDS011;30431;48.520;9.046;2023-07-02T08:45:16;17.52;;;9.43;;
44704;SDS011;30431;48.520;9.046;2023-07-02T08:50:14;19.60;;;9.73;;
44704;SDS011;30431;48.520;9.046;2023-07-02T08:52:41;15.68;;;9.32;;
44704;SDS011;30431;48.520;9.046;2023-07-02T08:55:14;16.08;;;9.82;;
44704;SDS011;30431;48.520;9.046;2023-07-02T08:57:49;15.80;;;9.10;;
44704;SDS011;30431;48.520;9.046;2023-07-02T09:00:19;17.73;;;9.57;;
44704;SDS011;30431;48.520;9.046;2023-07-02T09:02:51;14.38;;;9.70;;
44704;SDS011;30431;48.520;9.046;2023-07-02T09:05:18;22.17;;;9.75;;
44704;SDS011;30431;48.520;9.046;2023-07-02T09:10:34;14.23;;;9.40;;
44704;SDS011;30431;48.520;9.046;2023-07-02T09:13:03;15.48;;;9.82;;
44704;SDS011;30431;48.520;9.046;2023-07-02T09:18:20;13.95;;;8.93;;
44704;SDS011;30431;48.520;9.046;2023-07-02T09:20:54;14.35;;;9.40;;
44704;SDS011;30431;48.520;9.046;2023-07-02T09:23:21;15.25;;;8.05;;
44704;SDS011;30431;48.520;9.046;2023-07-02T09:28:18;14.73;;;9.20;;
44704;SDS011;30431;48.520;9.046;2023-07-02T09:30:51;14.63;;;8.85;;
44704;SDS011;30431;48.520;9.046;2023-07-02T09:33:28;14.95;;;9.10;;
44704;SDS011;30431;48.520;9.046;2023-07-02T09:35:55;18.40;;;9.85;;
44704;SDS011;30431;48.520;9.046;2023-07-02T09:38:25;18.08;;;10.23;;
44704;SDS011;30431;48.520;9.046;2023-07-02T09:40:55;18.38;;;11.07;;
44704;SDS011;30431;48.520;9.046;2023-07-02T09:43:25;17.00;;;10.35;;
44704;SDS011;30431;48.520;9.046;2023-07-02T09:45:53;20.75;;;11.32;;
44704;SDS011;30431;48.520;9.046;2023-07-02T09:48:24;27.33;;;13.43;;
44704;SDS011;30431;48.520;9.046;2023-07-02T09:50:56;23.42;;;14.40;;
44704;SDS011;30431;48.520;9.046;2023-07-02T09:53:26;20.90;;;14.32;;
44704;SDS011;30431;48.520;9.046;2023-07-02T09:55:54;19.48;;;14.00;;
44704;SDS011;30431;48.520;9.046;2023-07-02T09:58:21;22.67;;;15.13;;
44704;SDS011;30431;48.520;9.046;2023-07-02T10:00:56;20.48;;;13.65;;
44704;SDS011;30431;48.520;9.046;2023-07-02T10:03:29;22.48;;;12.90;;
44704;SDS011;30431;48.520;9.046;2023-07-02T10:06:04;20.92;;;12.65;;
44704;SDS011;30431;48.520;9.046;2023-07-02T10:08:31;20.83;;;13.20;;
44704;SDS011;30431;48.520;9.046;2023-07-02T10:11:11;18.55;;;12.75;;
44704;SDS011;30431;48.520;9.046;2023-07-02T10:13:39;19.02;;;12.48;;
44704;SDS011;30431;48.520;9.046;2023-07-02T10:16:07;19.05;;;12.18;;
44704;SDS011;30431;48.520;9.046;2023-07-02T10:18:34;20.40;;;12.60;;
44704;SDS011;30431;48.520;9.046;2023-07-02T10:21:13;21.58;;;13.35;;
44704;SDS011;30431;48.520;9.046;2023-07-02T10:23:42;18.15;;;12.27;;
44704;SDS011;30431;48.520;9.046;2023-07-02T10:26:09;25.58;;;12.80;;
44704;SDS011;30431;48.520;9.046;2023-07-02T10:28:40;18.60;;;12.38;;
44704;SDS011;30431;48.520;9.046;2023-07-02T10:33:46;23.63;;;13.73;;
44704;SDS011;30431;48.520;9.046;2023-07-02T10:36:17;20.02;;;14.07;;
44704;SDS011;30431;48.520;9.046;2023-07-02T10:38:48;24.17;;;16.35;;
44704;SDS011;30431;48.520;9.046;2023-07-02T10:41:24;24.25;;;16.95;;
44704;SDS011;30431;48.520;9.046;2023-07-02T10:43:54;21.92;;;15.15;;
44704;SDS011;30431;48.520;9.046;2023-07-02T10:46:31;25.85;;;17.75;;
44704;SDS011;30431;48.520;9.046;2023-07-02T10:49:02;22.70;;;16.50;;
44704;SDS011;30431;48.520;9.046;2023-07-02T10:51:29;25.95;;;17.52;;
44704;SDS011;30431;48.520;9.046;2023-07-02T10:53:59;24.02;;;17.90;;
44704;SDS011;30431;48.520;9.046;2023-07-02T10:56:34;24.92;;;16.75;;
44704;SDS011;30431;48.520;9.046;2023-07-02T10:59:03;21.08;;;15.35;;
44704;SDS011;30431;48.520;9.046;2023-07-02T11:01:31;24.55;;;17.63;;
44704;SDS011;30431;48.520;9.046;2023-07-02T11:04:02;21.75;;;15.70;;
44704;SDS011;30431;48.520;9.046;2023-07-02T11:06:32;23.33;;;15.65;;
44704;SDS011;30431;48.520;9.046;2023-07-02T11:08:59;22.52;;;15.27;;
44704;SDS011;30431;48.520;9.046;2023-07-02T11:11:27;25.83;;;16.25;;
44704;SDS011;30431;48.520;9.046;2023-07-02T11:13:54;24.15;;;15.60;;
44704;SDS011;30431;48.520;9.046;2023-07-02T11:18:53;21.35;;;16.05;;
44704;SDS011;30431;48.520;9.046;2023-07-02T11:21:34;23.55;;;15.27;;
44704;SDS011;30431;48.520;9.046;2023-07-02T11:24:07;24.08;;;15.70;;
44704;SDS011;30431;48.520;9.046;2023-07-02T11:26:38;21.05;;;14.82;;
44704;SDS011;30431;48.520;9.046;2023-07-02T11:29:12;22.33;;;15.48;;
44704;SDS011;30431;48.520;9.046;2023-07-02T11:31:44;22.10;;;14.93;;
44704;SDS011;30431;48.520;9.046;2023-07-02T11:36:39;19.98;;;14.60;;
44704;SDS011;30431;48.520;9.046;2023-07-02T11:39:06;19.52;;;14.15;;
44704;SDS011;30431;48.520;9.046;2023-07-02T11:41:36;21.20;;;15.15;;
44704;SDS011;30431;48.520;9.046;2023-07-02T11:44:04;22.73;;;13.60;;
44704;SDS011;30431;48.520;9.046;2023-07-02T11:46:36;17.70;;;14.02;;
44704;SDS011;30431;48.520;9.046;2023-07-02T11:49:05;17.60;;;13.60;;
44704;SDS011;30431;48.520;9.046;2023-07-02T11:51:38;19.95;;;13.98;;
44704;SDS011;30431;48.520;9.046;2023-07-02T11:54:13;21.05;;;13.93;;
44704;SDS011;30431;48.520;9.046;2023-07-02T11:56:42;18.13;;;13.85;;
44704;SDS011;30431;48.520;9.046;2023-07-02T11:59:10;20.63;;;13.95;;
44704;SDS011;30431;48.520;9.046;2023-07-02T12:01:37;17.48;;;12.93;;
44704;SDS011;30431;48.520;9.046;2023-07-02T12:04:10;19.90;;;12.52;;
44704;SDS011;30431;48.520;9.046;2023-07-02T12:06:38;18.02;;;12.50;;
44704;SDS011;30431;48.520;9.046;2023-07-02T12:11:33;19.88;;;13.75;;
44704;SDS011;30431;48.520;9.046;2023-07-02T12:13:59;18.52;;;11.90;;
44704;SDS011;30431;48.520;9.046;2023-07-02T12:16:29;21.27;;;13.50;;
44704;SDS011;30431;48.520;9.046;2023-07-02T12:18:59;21.90;;;13.20;;
44704;SDS011;30431;48.520;9.046;2023-07-02T12:21:26;17.92;;;13.02;;
44704;SDS011;30431;48.520;9.046;2023-07-02T12:23:53;15.85;;;13.20;;
44704;SDS011;30431;48.520;9.046;2023-07-02T12:26:20;21.52;;;13.65;;
44704;SDS011;30431;48.520;9.046;2023-07-02T12:28:47;22.75;;;14.00;;
44704;SDS011;30431;48.520;9.046;2023-07-02T12:31:17;19.52;;;13.82;;
44704;SDS011;30431;48.520;9.046;2023-07-02T12:33:44;20.98;;;13.88;;
44704;SDS011;30431;48.520;9.046;2023-07-02T12:36:11;23.30;;;15.35;;
44704;SDS011;30431;48.520;9.046;2023-07-02T12:38:40;22.00;;;13.93;;
44704;SDS011;30431;48.520;9.046;2023-07-02T12:41:07;17.48;;;13.55;;
44704;SDS011;30431;48.520;9.046;2023-07-02T12:43:34;17.27;;;12.90;;
44704;SDS011;30431;48.520;9.046;2023-07-02T12:46:06;17.42;;;13.10;;
44704;SDS011;30431;48.520;9.046;2023-07-02T12:48:34;19.63;;;13.43;;
44704;SDS011;30431;48.520;9.046;2023-07-02T12:51:00;19.77;;;13.35;;
44704;SDS011;30431;48.520;9.046;2023-07-02T12:55:54;17.10;;;13.68;;
44704;SDS011;30431;48.520;9.046;2023-07-02T12:58:21;17.58;;;12.68;;
44704;SDS011;30431;48.520;9.046;2023-07-02T13:03:18;19.85;;;12.77;;
44704;SDS011;30431;48.520;9.046;2023-07-02T13:05:49;18.05;;;12.98;;
44704;SDS011;30431;48.520;9.046;2023-07-02T13:08:17;15.82;;;11.75;;
44704;SDS011;30431;48.520;9.046;2023-07-02T13:10:46;19.55;;;13.45;;
44704;SDS011;30431;48.520;9.046;2023-07-02T13:13:18;19.92;;;13.55;;
44704;SDS011;30431;48.520;9.046;2023-07-02T13:15:50;19.45;;;13.90;;
44704;SDS011;30431;48.520;9.046;2023-07-02T13:18:19;16.95;;;13.32;;
44704;SDS011;30431;48.520;9.046;2023-07-02T13:20:49;19.17;;;14.43;;
44704;SDS011;30431;48.520;9.046;2023-07-02T13:23:16;20.42;;;13.85;;
44704;SDS011;30431;48.520;9.046;2023-07-02T13:28:13;19.55;;;14.07;;
44704;SDS011;30431;48.520;9.046;2023-07-02T13:30:39;23.90;;;14.05;;
44704;SDS011;30431;48.520;9.046;2023-07-02T13:33:06;19.70;;;13.77;;
44704;SDS011;30431;48.520;9.046;2023-07-02T13:38:03;17.00;;;13.65;;
44704;SDS011;30431;48.520;9.046;2023-07-02T13:40:36;18.95;;;13.38;;
44704;SDS011;30431;48.520;9.046;2023-07-02T13:43:03;21.05;;;14.13;;
44704;SDS011;30431;48.520;9.046;2023-07-02T13:45:30;20.20;;;14.68;;
44704;SDS011;30431;48.520;9.046;2023-07-02T13:47:58;22.58;;;14.48;;
44704;SDS011;30431;48.520;9.046;2023-07-02T13:50:27;20.30;;;14.05;;
44704;SDS011;30431;48.520;9.046;2023-07-02T13:52:57;19.50;;;14.43;;
44704;SDS011;30431;48.520;9.046;2023-07-02T13:55:26;19.70;;;14.52;;
44704;SDS011;30431;48.520;9.046;2023-07-02T13:57:54;20.67;;;14.40;;
44704;SDS011;30431;48.520;9.046;2023-07-02T14:00:22;19.60;;;14.43;;
44704;SDS011;30431;48.520;9.046;2023-07-02T14:02:50;19.00;;;14.88;;
44704;SDS011;30431;48.520;9.046;2023-07-02T14:05:17;21.00;;;14.50;;
44704;SDS011;30431;48.520;9.046;2023-07-02T14:07:44;20.17;;;14.57;;
44704;SDS011;30431;48.520;9.046;2023-07-02T14:12:39;21.00;;;14.50;;
44704;SDS011;30431;48.520;9.046;2023-07-02T14:15:07;16.90;;;13.23;;
44704;SDS011;30431;48.520;9.046;2023-07-02T14:17:37;18.52;;;13.30;;
44704;SDS011;30431;48.520;9.046;2023-07-02T14:20:08;20.50;;;13.60;;
44704;SDS011;30431;48.520;9.046;2023-07-02T14:22:37;21.75;;;13.60;;
44704;SDS011;30431;48.520;9.046;2023-07-02T14:25:07;20.50;;;13.48;;
44704;SDS011;30431;48.520;9.046;2023-07-02T14:27:37;16.55;;;12.30;;
44704;SDS011;30431;48.520;9.046;2023-07-02T14:30:12;16.95;;;13.63;;
44704;SDS011;30431;48.520;9.046;2023-07-02T14:32:39;18.52;;;12.93;;
44704;SDS011;30431;48.520;9.046;2023-07-02T14:35:06;17.52;;;13.88;;
44704;SDS011;30431;48.520;9.046;2023-07-02T14:37:37;20.42;;;13.55;;
44704;SDS011;30431;48.520;9.046;2023-07-02T14:40:09;19.75;;;13.13;;
44704;SDS011;30431;48.520;9.046;2023-07-02T14:42:36;17.90;;;12.52;;
44704;SDS011;30431;48.520;9.046;2023-07-02T14:45:07;19.02;;;13.15;;
44704;SDS011;30431;48.520;9.046;2023-07-02T14:47:38;18.55;;;12.52;;
44704;SDS011;30431;48.520;9.046;2023-07-02T14:50:05;19.17;;;12.57;;
44704;SDS011;30431;48.520;9.046;2023-07-02T14:52:32;21.13;;;13.25;;
44704;SDS011;30431;48.520;9.046;2023-07-02T14:55:02;15.60;;;11.90;;
44704;SDS011;30431;48.520;9.046;2023-07-02T14:57:31;17.30;;;12.38;;
44704;SDS011;30431;48.520;9.046;2023-07-02T15:00:00;18.25;;;11.80;;
44704;SDS011;30431;48.520;9.046;2023-07-02T15:02:27;19.73;;;13.30;;
44704;SDS011;30431;48.520;9.046;2023-07-02T15:05:00;17.23;;;12.02;;
44704;SDS011;30431;48.520;9.046;2023-07-02T15:07:29;18.10;;;12.23;;
44704;SDS011;30431;48.520;9.046;2023-07-02T15:09:59;15.20;;;12.82;;
44704;SDS011;30431;48.520;9.046;2023-07-02T15:14:55;16.90;;;12.25;;
44704;SDS011;30431;48.520;9.046;2023-07-02T15:19:49;17.35;;;12.27;;
44704;SDS011;30431;48.520;9.046;2023-07-02T15:22:18;17.48;;;11.75;;
44704;SDS011;30431;48.520;9.046;2023-07-02T15:24:45;22.02;;;13.02;;
44704;SDS011;30431;48.520;9.046;2023-07-02T15:27:14;18.40;;;11.75;;
44704;SDS011;30431;48.520;9.046;2023-07-02T15:29:41;16.42;;;11.68;;
44704;SDS011;30431;48.520;9.046;2023-07-02T15:36:12;14.77;;;11.70;;
44704;SDS011;30431;48.520;9.046;2023-07-02T15:38:42;17.02;;;11.93;;
44704;SDS011;30431;48.520;9.046;2023-07-02T15:41:13;16.85;;;11.98;;
44704;SDS011;30431;48.520;9.046;2023-07-02T15:43:45;19.35;;;11.98;;
44704;SDS011;30431;48.520;9.046;2023-07-02T15:46:13;14.65;;;11.38;;
44704;SDS011;30431;48.520;9.046;2023-07-02T15:48:42;15.23;;;11.88;;
44704;SDS011;30431;48.520;9.046;2023-07-02T15:51:10;16.58;;;11.65;;
44704;SDS011;30431;48.520;9.046;2023-07-02T15:53:38;14.10;;;10.90;;
44704;SDS011;30431;48.520;9.046;2023-07-02T15:56:09;16.67;;;11.38;;
44704;SDS011;30431;48.520;9.046;2023-07-02T15:58:42;14.25;;;11.23;;
44704;SDS011;30431;48.520;9.046;2023-07-02T16:01:10;14.48;;;11.25;;
44704;SDS011;30431;48.520;9.046;2023-07-02T16:04:00;14.60;;;10.98;;